Time;durP1;ratioP1;P1;durP2;ratioP2;P2;SDS_P1;SDS_P2;PMS_P1;PMS_P2;Temp;Humidity;BMP_temperature;BMP_pressure;BME280_temperature;BME280_humidity;BME280_pressure;Samples;Min_cycle;Max_cycle;Signal;HPM_P1;HPM_P2
2022/07/20 00:01:32;;;;;;;7.10;6.50;;;23.20;55.50;;;;;;4975989;28;20516;-89
2022/07/20 00:03:59;;;;;;;8.20;7.40;;;23.00;55.40;;;;;;4975748;28;20485;-88
2022/07/20 00:06:26;;;;;;;8.37;7.50;;;22.90;55.80;;;;;;4975566;28;20457;-88
2022/07/20 00:11:38;;;;;;;8.27;7.00;;;22.90;56.30;;;;;;4975692;28;20428;-88
2022/07/20 00:14:06;;;;;;;7.50;6.77;;;22.80;55.80;;;;;;4975587;28;20474;-87
2022/07/20 00:16:34;;;;;;;7.80;7.10;;;22.80;56.30;;;;;;4975308;28;20844;-87
2022/07/20 00:19:01;;;;;;;8.50;7.60;;;22.80;56.40;;;;;;4975483;28;20491;-85
2022/07/20 00:21:28;;;;;;;7.80;7.20;;;22.70;56.10;;;;;;4975354;28;20507;-85
2022/07/20 00:23:55;;;;;;;7.03;6.43;;;22.80;56.60;;;;;;4975519;28;20495;-85
2022/07/20 00:26:22;;;;;;;8.40;7.50;;;22.70;56.70;;;;;;4975404;28;20462;-85
2022/07/20 00:28:51;;;;;;;8.63;7.80;;;22.70;56.80;;;;;;4975306;28;20451;-85
2022/07/20 00:31:18;;;;;;;7.20;6.70;;;22.60;56.90;;;;;;4975648;28;20461;-85
2022/07/20 00:33:46;;;;;;;9.03;8.23;;;22.60;57.10;;;;;;4975243;28;20555;-88
2022/07/20 00:36:23;;;;;;;8.37;7.47;;;22.50;57.30;;;;;;4975146;28;20464;-88
2022/07/20 00:38:50;;;;;;;7.57;6.97;;;22.50;57.60;;;;;;4974615;28;20448;-88
2022/07/20 00:41:17;;;;;;;8.70;7.33;;;22.50;57.70;;;;;;4975101;28;20459;-88
2022/07/20 00:43:59;;;;;;;8.17;7.57;;;22.40;57.50;;;;;;4974868;28;20491;-88
2022/07/20 00:46:26;;;;;;;9.83;7.00;;;22.40;57.70;;;;;;4975127;28;20918;-88
2022/07/20 00:48:53;;;;;;;8.70;7.77;;;22.30;58.00;;;;;;4974878;28;20455;-87
2022/07/20 00:51:20;;;;;;;8.00;7.23;;;22.20;58.00;;;;;;4974763;28;20597;-88
2022/07/20 00:53:47;;;;;;;8.67;7.77;;;22.20;58.20;;;;;;4974990;28;20476;-88
2022/07/20 00:56:16;;;;;;;8.10;7.30;;;22.10;58.40;;;;;;4974632;28;20961;-88
2022/07/20 00:58:42;;;;;;;8.20;7.50;;;22.00;58.30;;;;;;4974702;28;20514;-88
2022/07/20 01:01:11;;;;;;;10.37;7.70;;;22.00;58.00;;;;;;4974640;28;20511;-88
2022/07/20 01:03:38;;;;;;;7.50;6.90;;;21.90;57.50;;;;;;4975836;28;20480;-87
2022/07/20 01:06:05;;;;;;;12.10;7.57;;;21.90;57.70;;;;;;4977740;28;20826;-88
2022/07/20 01:08:32;;;;;;;8.43;7.40;;;21.90;57.90;;;;;;4975575;28;20441;-88
2022/07/20 01:11:01;;;;;;;8.70;7.80;;;21.90;58.50;;;;;;4974377;28;22461;-88
2022/07/20 01:13:36;;;;;;;9.13;7.37;;;21.90;58.30;;;;;;4974182;28;20547;-87
2022/07/20 01:16:03;;;;;;;8.93;8.13;;;21.80;58.20;;;;;;4973969;28;20922;-88
2022/07/20 01:18:31;;;;;;;12.73;7.67;;;21.80;58.40;;;;;;4974221;28;20464;-88
2022/07/20 01:21:02;;;;;;;8.00;7.33;;;21.80;58.60;;;;;;4974348;28;20495;-88
2022/07/20 01:23:28;;;;;;;8.57;7.70;;;21.80;58.70;;;;;;4974291;28;20440;-88
2022/07/20 01:26:03;;;;;;;8.77;7.00;;;21.80;58.70;;;;;;4974120;28;20440;-88
2022/07/20 01:28:40;;;;;;;9.87;8.30;;;21.80;58.90;;;;;;4974320;28;20788;-88
2022/07/20 01:31:06;;;;;;;7.30;6.60;;;21.80;59.20;;;;;;4973860;28;21046;-88
2022/07/20 01:33:33;;;;;;;8.97;8.03;;;21.70;59.20;;;;;;4974253;28;20818;-88
2022/07/20 01:36:01;;;;;;;8.50;7.70;;;21.70;59.60;;;;;;4973869;28;20460;-87
2022/07/20 01:38:28;;;;;;;8.93;7.57;;;21.70;59.50;;;;;;4974381;28;20452;-88
2022/07/20 01:40:55;;;;;;;7.10;6.50;;;21.70;59.40;;;;;;4973741;28;20495;-88
2022/07/20 01:43:22;;;;;;;7.13;6.40;;;21.70;59.30;;;;;;4974085;28;20463;-88
2022/07/20 01:45:48;;;;;;;8.67;7.07;;;21.70;59.40;;;;;;4973884;28;20832;-88
2022/07/20 01:48:16;;;;;;;8.17;7.50;;;21.70;59.50;;;;;;4973543;28;20460;-88
2022/07/20 01:50:42;;;;;;;7.77;7.03;;;21.70;59.50;;;;;;4973319;28;20836;-88
2022/07/20 01:53:10;;;;;;;10.60;6.80;;;21.70;59.90;;;;;;4973633;28;20977;-88
2022/07/20 01:55:37;;;;;;;8.10;7.40;;;21.60;60.00;;;;;;4973834;28;20456;-88
2022/07/20 01:58:04;;;;;;;11.13;8.13;;;21.60;60.40;;;;;;4973463;28;20459;-87
2022/07/20 02:00:31;;;;;;;11.70;8.03;;;21.60;60.90;;;;;;4973645;28;20494;-87
2022/07/20 02:02:58;;;;;;;8.33;7.37;;;21.60;60.80;;;;;;4973442;28;20458;-85
2022/07/20 02:05:25;;;;;;;7.77;7.10;;;21.50;60.70;;;;;;4973957;28;20472;-85
2022/07/20 02:07:51;;;;;;;7.80;7.10;;;21.50;60.70;;;;;;4973468;28;20465;-85
2022/07/20 02:10:20;;;;;;;7.90;7.20;;;21.50;61.10;;;;;;4973681;28;20448;-85
2022/07/20 02:12:46;;;;;;;8.80;8.03;;;21.50;61.20;;;;;;4973588;28;20451;-85
2022/07/20 02:16:14;;;;;;;8.70;7.90;;;21.40;60.90;;;;;;4973543;28;20830;-85
2022/07/20 02:18:06;;;;;;;9.80;7.83;;;21.40;61.00;;;;;;4973260;28;20454;-85
2022/07/20 02:20:34;;;;;;;7.77;7.17;;;21.40;61.10;;;;;;4973337;28;20510;-85
2022/07/20 02:23:00;;;;;;;9.00;7.70;;;21.40;61.50;;;;;;4973422;28;20458;-85
2022/07/20 02:25:29;;;;;;;9.57;8.03;;;21.30;61.50;;;;;;4977055;28;20495;-86
2022/07/20 02:27:55;;;;;;;9.80;7.90;;;21.30;62.20;;;;;;4975875;28;20466;-85
2022/07/20 02:30:23;;;;;;;7.47;6.87;;;21.30;62.70;;;;;;4973441;28;20452;-85
2022/07/20 02:32:50;;;;;;;9.90;8.50;;;21.30;62.70;;;;;;4973471;28;20925;-85
2022/07/20 02:35:17;;;;;;;8.80;8.00;;;21.30;62.80;;;;;;4981330;28;20534;-85
2022/07/20 02:37:44;;;;;;;8.63;7.70;;;21.20;63.30;;;;;;4997826;28;20519;-85
2022/07/20 02:40:11;;;;;;;10.40;8.10;;;21.10;64.40;;;;;;4992768;28;20603;-85
2022/07/20 02:42:40;;;;;;;7.93;7.13;;;21.10;65.20;;;;;;4974612;28;20455;-85
2022/07/20 02:45:07;;;;;;;7.90;7.10;;;21.00;65.10;;;;;;4974483;28;20487;-85
2022/07/20 02:47:43;;;;;;;8.50;7.80;;;21.00;65.20;;;;;;4996913;28;20442;-86
2022/07/20 02:50:11;;;;;;;8.27;7.37;;;21.00;65.70;;;;;;4997576;28;20498;-85
2022/07/20 02:52:38;;;;;;;9.47;8.67;;;21.00;65.80;;;;;;4975929;28;21013;-85
2022/07/20 02:55:05;;;;;;;8.57;7.77;;;20.90;65.80;;;;;;4974364;28;20473;-85
2022/07/20 02:57:32;;;;;;;7.23;6.70;;;20.90;66.40;;;;;;4991525;28;20526;-86
2022/07/20 03:00:00;;;;;;;7.00;6.50;;;20.90;66.60;;;;;;4997440;28;20534;-89
2022/07/20 03:02:33;;;;;;;8.83;6.83;;;20.80;66.80;;;;;;4985421;28;20456;-87
2022/07/20 03:05:04;;;;;;;12.43;7.23;;;20.80;66.90;;;;;;4979221;28;20511;-87
2022/07/20 03:07:31;;;;;;;7.87;7.27;;;20.80;67.20;;;;;;4977480;28;20469;-87
2022/07/20 03:09:58;;;;;;;7.83;7.23;;;20.80;67.20;;;;;;4978137;28;20454;-87
2022/07/20 03:12:25;;;;;;;9.53;8.27;;;20.70;67.40;;;;;;4978501;28;20460;-87
2022/07/20 03:14:52;;;;;;;8.00;7.30;;;20.80;68.10;;;;;;4978946;28;20473;-87
2022/07/20 03:17:20;;;;;;;8.03;7.33;;;20.70;68.10;;;;;;4973087;28;20481;-87
2022/07/20 03:19:47;;;;;;;9.13;8.33;;;20.70;68.30;;;;;;4976990;28;21022;-88
2022/07/20 03:22:14;;;;;;;9.60;7.40;;;20.70;68.80;;;;;;4976849;28;20453;-87
2022/07/20 03:24:41;;;;;;;9.63;8.70;;;20.70;69.30;;;;;;5025438;23;20478;-79
2022/07/20 03:27:07;;;;;;;8.30;7.60;;;20.70;69.40;;;;;;4995148;28;20452;-80
2022/07/20 03:29:34;;;;;;;9.83;7.70;;;20.60;69.70;;;;;;4993315;28;20455;-81
2022/07/20 03:32:01;;;;;;;7.83;7.10;;;20.60;70.10;;;;;;4994434;28;20447;-79
2022/07/20 03:34:29;;;;;;;9.60;7.60;;;20.50;70.20;;;;;;4994350;28;20477;-79
2022/07/20 03:36:56;;;;;;;8.10;7.37;;;20.50;71.90;;;;;;4994752;28;20436;-79
2022/07/20 03:39:23;;;;;;;8.83;8.03;;;20.50;72.60;;;;;;4995008;28;20446;-80
2022/07/20 03:41:49;;;;;;;9.17;7.10;;;20.40;72.50;;;;;;4993921;28;20451;-80
2022/07/20 03:44:16;;;;;;;9.00;8.30;;;20.40;72.90;;;;;;4993580;28;20475;-80
2022/07/20 03:46:43;;;;;;;8.67;7.80;;;20.40;73.40;;;;;;4992919;28;20455;-79
2022/07/20 03:49:09;;;;;;;10.97;7.77;;;20.40;73.70;;;;;;4992247;28;20453;-79
2022/07/20 03:51:38;;;;;;;7.80;7.20;;;20.30;74.10;;;;;;4993336;28;20489;-79
2022/07/20 03:54:05;;;;;;;7.50;6.90;;;20.20;74.80;;;;;;4994593;28;20529;-80
2022/07/20 03:56:31;;;;;;;8.97;8.20;;;20.20;75.30;;;;;;4994542;28;20496;-80
2022/07/20 03:58:58;;;;;;;7.17;6.53;;;20.20;75.60;;;;;;4993987;28;20445;-79
2022/07/20 04:01:25;;;;;;;9.37;8.47;;;20.20;75.60;;;;;;4993867;28;20445;-81
2022/07/20 04:03:51;;;;;;;8.43;7.57;;;20.20;76.20;;;;;;4994167;28;20482;-79
2022/07/20 04:06:18;;;;;;;7.53;6.90;;;20.20;77.70;;;;;;4994246;28;20449;-80
2022/07/20 04:08:48;;;;;;;8.43;7.63;;;20.20;78.40;;;;;;4994601;28;20466;-80
2022/07/20 04:11:14;;;;;;;9.57;8.47;;;20.20;78.50;;;;;;4993627;28;20478;-78
2022/07/20 04:13:41;;;;;;;8.67;7.63;;;20.20;78.80;;;;;;4992939;28;20458;-79
2022/07/20 04:16:08;;;;;;;8.13;7.40;;;20.20;79.00;;;;;;4993681;28;20957;-80
2022/07/20 04:18:35;;;;;;;9.40;8.60;;;20.20;79.40;;;;;;4994705;28;20454;-79
2022/07/20 04:21:01;;;;;;;8.63;7.93;;;20.20;79.20;;;;;;4993778;28;20456;-80
2022/07/20 04:23:28;;;;;;;7.97;7.27;;;20.20;79.30;;;;;;4993999;28;20449;-81
2022/07/20 04:25:56;;;;;;;8.93;7.90;;;20.20;79.50;;;;;;4993768;28;20484;-80
2022/07/20 04:28:23;;;;;;;7.97;7.27;;;20.20;79.80;;;;;;4993796;28;20465;-80
2022/07/20 04:30:50;;;;;;;8.03;7.33;;;20.30;80.00;;;;;;4994314;28;20492;-80
2022/07/20 04:33:18;;;;;;;8.90;8.03;;;20.30;80.10;;;;;;4993445;28;20468;-78
2022/07/20 04:35:45;;;;;;;8.93;8.10;;;20.30;80.50;;;;;;4993037;28;20509;-80
2022/07/20 04:38:13;;;;;;;10.27;7.27;;;20.30;81.20;;;;;;4993599;28;20451;-80
2022/07/20 04:40:40;;;;;;;8.83;7.70;;;20.40;81.70;;;;;;4993157;28;20455;-80
2022/07/20 04:43:08;;;;;;;8.37;7.77;;;20.40;82.20;;;;;;4993104;28;20461;-81
2022/07/20 04:45:35;;;;;;;7.97;7.27;;;20.50;82.50;;;;;;4993461;28;20991;-81
2022/07/20 04:48:01;;;;;;;7.63;6.87;;;20.50;82.30;;;;;;4992517;28;20445;-81
2022/07/20 04:50:28;;;;;;;8.27;7.47;;;20.50;81.60;;;;;;4993593;28;20491;-82
2022/07/20 04:52:55;;;;;;;7.33;6.70;;;20.60;82.00;;;;;;4992897;28;20472;-79
2022/07/20 04:55:22;;;;;;;9.70;8.03;;;20.60;82.00;;;;;;4993374;28;20464;-81
2022/07/20 04:57:49;;;;;;;8.57;7.40;;;20.70;82.30;;;;;;4992313;28;20464;-80
2022/07/20 05:00:18;;;;;;;9.63;7.83;;;20.70;82.50;;;;;;4993042;28;20463;-80
2022/07/20 05:02:44;;;;;;;7.90;7.13;;;20.80;82.20;;;;;;4990916;28;20465;-80
2022/07/20 05:05:11;;;;;;;9.40;8.60;;;20.90;82.30;;;;;;4992783;28;20486;-79
2022/07/20 05:07:38;;;;;;;10.93;7.13;;;20.90;82.10;;;;;;4992852;28;20456;-78
2022/07/20 05:10:05;;;;;;;7.60;6.90;;;21.00;79.80;;;;;;4991978;28;20487;-81
2022/07/20 05:12:32;;;;;;;7.70;6.43;;;21.10;78.50;;;;;;4986385;28;20453;-81
2022/07/20 05:14:58;;;;;;;7.90;6.97;;;21.10;78.60;;;;;;4981406;28;20478;-81
2022/07/20 05:17:26;;;;;;;7.00;6.33;;;21.20;78.90;;;;;;4980424;28;20449;-81
2022/07/20 05:19:53;;;;;;;7.83;7.00;;;21.30;79.20;;;;;;4980261;28;20457;-81
2022/07/20 05:22:20;;;;;;;8.10;6.03;;;21.30;78.90;;;;;;4980688;28;20814;-80
2022/07/20 05:24:46;;;;;;;8.20;7.40;;;21.40;78.70;;;;;;4979387;28;20484;-81
2022/07/20 05:27:13;;;;;;;8.07;6.27;;;21.50;78.10;;;;;;4979276;28;20454;-83
2022/07/20 05:29:40;;;;;;;6.83;6.20;;;21.60;77.90;;;;;;4979489;28;20460;-79
2022/07/20 05:32:07;;;;;;;8.33;6.60;;;21.70;77.10;;;;;;4979474;28;20491;-81
2022/07/20 05:34:35;;;;;;;13.13;7.80;;;21.70;77.10;;;;;;4979654;28;20544;-79
2022/07/20 05:37:02;;;;;;;10.03;7.73;;;21.70;77.60;;;;;;4979599;28;20463;-80
2022/07/20 05:39:29;;;;;;;7.37;6.60;;;21.80;77.50;;;;;;4979723;28;20955;-81
2022/07/20 05:41:55;;;;;;;15.17;8.30;;;21.80;77.90;;;;;;4979050;28;20455;-81
2022/07/20 05:44:22;;;;;;;10.40;7.80;;;21.90;77.60;;;;;;4979155;28;20483;-82
2022/07/20 05:46:49;;;;;;;10.10;9.10;;;22.00;77.90;;;;;;4988914;28;20465;-79
2022/07/20 05:49:15;;;;;;;10.40;8.20;;;22.10;78.10;;;;;;4988337;28;20448;-81
2022/07/20 05:51:43;;;;;;;11.87;8.20;;;22.10;77.10;;;;;;4980485;28;20496;-81
2022/07/20 05:54:10;;;;;;;12.17;8.90;;;22.20;76.70;;;;;;4980008;28;20478;-81
2022/07/20 05:56:37;;;;;;;17.67;8.60;;;22.30;76.40;;;;;;4978167;28;20456;-81
2022/07/20 05:59:04;;;;;;;10.80;7.30;;;22.30;76.30;;;;;;4979336;28;20453;-82
2022/07/20 06:01:30;;;;;;;10.83;7.60;;;22.40;75.80;;;;;;4978723;28;20440;-82
2022/07/20 06:03:57;;;;;;;11.57;6.97;;;22.50;75.50;;;;;;4978302;28;20475;-81
2022/07/20 06:06:24;;;;;;;10.57;7.13;;;22.60;75.50;;;;;;4978838;28;20523;-82
2022/07/20 06:08:52;;;;;;;9.13;8.27;;;22.60;75.60;;;;;;4979146;28;20459;-80
2022/07/20 06:11:19;;;;;;;14.77;8.33;;;22.70;75.40;;;;;;4976385;28;20507;-81
2022/07/20 06:13:45;;;;;;;12.17;7.80;;;22.80;76.20;;;;;;4978751;28;20465;-81
2022/07/20 06:16:12;;;;;;;15.07;7.20;;;22.90;75.90;;;;;;4979013;28;20449;-81
2022/07/20 06:18:39;;;;;;;10.67;8.20;;;23.00;76.20;;;;;;4978299;28;20456;-81
2022/07/20 06:21:06;;;;;;;13.47;7.83;;;23.10;75.70;;;;;;4975656;28;20456;-81
2022/07/20 06:23:33;;;;;;;9.77;6.60;;;23.20;75.10;;;;;;4979344;28;20463;-82
2022/07/20 06:26:01;;;;;;;8.37;7.57;;;23.30;75.00;;;;;;4979079;28;20827;-80
2022/07/20 06:28:27;;;;;;;13.87;7.80;;;23.40;74.90;;;;;;4979789;28;20792;-81
2022/07/20 06:30:54;;;;;;;12.57;9.17;;;23.40;74.90;;;;;;4978670;28;20492;-82
2022/07/20 06:33:21;;;;;;;10.30;9.10;;;23.50;74.90;;;;;;4979180;28;20460;-82
2022/07/20 06:35:47;;;;;;;9.87;7.70;;;23.60;74.60;;;;;;4979204;28;20487;-80
2022/07/20 06:38:14;;;;;;;11.50;7.23;;;23.70;74.70;;;;;;4979502;28;20463;-81
2022/07/20 06:40:41;;;;;;;7.60;7.00;;;23.80;75.10;;;;;;4978608;28;20463;-80
2022/07/20 06:43:09;;;;;;;10.30;8.35;;;24.00;73.50;;;;;;4979707;28;20450;-86
2022/07/20 06:45:59;;;;;;;9.03;8.13;;;24.00;70.40;;;;;;4981072;28;20317;-83
2022/07/20 06:48:42;;;;;;;14.10;7.90;;;24.20;69.90;;;;;;4979544;28;20493;-85
2022/07/20 06:51:27;;;;;;;8.60;7.90;;;24.30;71.70;;;;;;5001301;28;20493;-85
2022/07/20 06:53:54;;;;;;;10.20;9.20;;;24.40;66.40;;;;;;4960292;28;20479;-85
2022/07/20 06:56:21;;;;;;;16.50;10.30;;;24.60;66.80;;;;;;4976846;28;20482;-85
2022/07/20 06:58:50;;;;;;;9.40;8.40;;;24.70;67.00;;;;;;4974552;28;20486;-85
2022/07/20 07:01:46;;;;;;;9.50;8.27;;;24.90;69.60;;;;;;4980059;28;20459;-85
2022/07/20 07:04:12;;;;;;;8.77;7.80;;;25.00;65.10;;;;;;4962204;28;20574;-84
2022/07/20 07:06:41;;;;;;;8.37;7.67;;;25.20;65.10;;;;;;4995066;28;20984;-85
2022/07/20 07:09:09;;;;;;;10.20;9.30;;;25.30;64.40;;;;;;4976221;28;20464;-86
2022/07/20 07:11:35;;;;;;;8.37;7.67;;;25.40;62.10;;;;;;4981956;28;20487;-85
2022/07/20 07:14:08;;;;;;;9.17;8.23;;;25.50;64.30;;;;;;4980318;28;20522;-84
2022/07/20 07:16:35;;;;;;;9.03;8.23;;;25.70;64.00;;;;;;4978483;28;20540;-85
2022/07/20 07:19:02;;;;;;;8.30;7.67;;;25.80;61.90;;;;;;4975782;28;20457;-87
2022/07/20 07:21:28;;;;;;;8.50;7.70;;;25.90;61.70;;;;;;4978258;28;20455;-83
2022/07/20 07:23:55;;;;;;;9.47;8.67;;;26.00;60.80;;;;;;4980391;28;21011;-84
2022/07/20 07:26:23;;;;;;;8.57;7.77;;;26.10;60.00;;;;;;4981413;28;20439;-85
2022/07/20 07:28:50;;;;;;;9.27;8.50;;;26.20;60.00;;;;;;4981527;28;20450;-84
2022/07/20 07:31:44;;;;;;;10.40;9.30;;;26.40;59.50;;;;;;4980671;28;20484;-83
2022/07/20 07:34:12;;;;;;;9.87;8.87;;;26.50;60.10;;;;;;4980166;28;20494;-83
2022/07/20 07:36:41;;;;;;;9.97;9.00;;;26.70;58.30;;;;;;4980154;28;20826;-84
2022/07/20 07:39:22;;;;;;;8.90;8.10;;;26.90;58.20;;;;;;4980794;28;20486;-83
2022/07/20 07:44:36;;;;;;;7.83;7.00;;;27.10;56.20;;;;;;4978538;28;20478;-83
2022/07/20 07:47:05;;;;;;;8.73;8.00;;;27.10;56.50;;;;;;4980798;28;20445;-84
2022/07/20 07:49:32;;;;;;;8.90;7.33;;;27.20;57.00;;;;;;4981836;28;20523;-84
2022/07/20 07:52:05;;;;;;;10.23;8.40;;;27.40;56.20;;;;;;4983877;28;20991;-84
2022/07/20 07:54:32;;;;;;;9.47;7.90;;;27.60;56.40;;;;;;4984353;28;20475;-83
2022/07/20 07:57:01;;;;;;;13.10;8.90;;;27.60;56.80;;;;;;4987935;28;20449;-83
2022/07/20 07:59:28;;;;;;;8.60;8.00;;;27.80;57.00;;;;;;4995558;28;20467;-82
2022/07/20 08:01:55;;;;;;;8.73;7.93;;;27.90;56.60;;;;;;4994628;28;20483;-84
2022/07/20 08:04:26;;;;;;;7.97;7.27;;;28.10;56.80;;;;;;4984763;28;20468;-83
2022/07/20 08:06:58;;;;;;;8.53;7.70;;;28.20;55.10;;;;;;4984449;28;20490;-84
2022/07/20 08:09:25;;;;;;;7.73;7.03;;;28.20;54.00;;;;;;4984517;28;20463;-84
2022/07/20 08:11:54;;;;;;;8.90;6.27;;;28.30;53.20;;;;;;4984674;28;20491;-84
2022/07/20 08:14:21;;;;;;;7.50;6.80;;;28.40;53.20;;;;;;4984432;28;21038;-85
2022/07/20 08:16:51;;;;;;;7.30;6.80;;;28.50;52.80;;;;;;4984737;28;20486;-84
2022/07/20 08:19:18;;;;;;;8.00;7.40;;;28.70;51.30;;;;;;4984400;28;20455;-84
2022/07/20 08:21:54;;;;;;;8.20;6.50;;;28.80;52.00;;;;;;4984499;28;20520;-84
2022/07/20 08:24:23;;;;;;;7.77;6.80;;;28.80;51.90;;;;;;4984226;28;20543;-84
2022/07/20 08:26:56;;;;;;;9.50;7.33;;;29.00;51.40;;;;;;4983893;28;20458;-84
2022/07/20 08:29:23;;;;;;;7.97;7.17;;;29.10;51.70;;;;;;4984521;28;20462;-83
2022/07/20 08:31:53;;;;;;;7.30;6.80;;;29.20;52.10;;;;;;4984561;28;20854;-84
2022/07/20 08:34:20;;;;;;;7.20;6.53;;;29.30;51.70;;;;;;4984422;28;20542;-84
2022/07/20 08:36:58;;;;;;;7.93;7.07;;;29.40;51.10;;;;;;4984455;28;20456;-84
2022/07/20 08:39:32;;;;;;;7.67;7.07;;;29.50;51.80;;;;;;4984038;28;20510;-84
2022/07/20 08:42:20;;;;;;;7.23;6.50;;;29.50;50.50;;;;;;4984096;28;20515;-84
2022/07/20 08:45:00;;;;;;;10.93;7.00;;;29.70;49.30;;;;;;4984338;28;20468;-83
2022/07/20 08:47:46;;;;;;;8.00;7.20;;;29.90;49.00;;;;;;4984368;28;20882;-84
2022/07/20 08:50:21;;;;;;;7.80;7.00;;;30.00;48.80;;;;;;4984111;28;20452;-84
2022/07/20 08:52:52;;;;;;;8.03;7.43;;;30.00;48.70;;;;;;4984524;28;20499;-83
2022/07/20 08:55:27;;;;;;;7.67;7.07;;;30.10;49.40;;;;;;4984881;28;21060;-84
2022/07/20 08:58:10;;;;;;;7.97;7.47;;;30.30;48.30;;;;;;4984197;28;20455;-85
2022/07/20 09:00:56;;;;;;;10.07;7.47;;;30.40;48.40;;;;;;4984318;28;20521;-85
2022/07/20 09:04:08;;;;;;;11.20;6.77;;;30.60;49.60;;;;;;4985370;28;20441;-84
2022/07/20 09:06:50;;;;;;;7.47;6.97;;;30.70;48.60;;;;;;4979417;28;20525;-85
2022/07/20 09:09:36;;;;;;;8.23;7.40;;;30.90;47.90;;;;;;4985567;28;20481;-84
2022/07/20 09:12:24;;;;;;;6.87;6.47;;;31.00;48.80;;;;;;4985265;28;20495;-85
2022/07/20 09:15:12;;;;;;;9.10;8.30;;;31.10;48.00;;;;;;4985073;28;20493;-84
2022/07/20 09:17:45;;;;;;;8.43;7.67;;;31.20;47.40;;;;;;4985066;28;20446;-84
2022/07/20 09:20:29;;;;;;;8.60;7.80;;;31.40;46.70;;;;;;4985662;28;20486;-84
2022/07/20 09:23:41;;;;;;;8.27;7.47;;;31.40;45.90;;;;;;4986331;28;20458;-85
2022/07/20 09:26:21;;;;;;;8.60;7.80;;;31.50;45.60;;;;;;4954242;28;20463;-85
2022/07/20 09:29:00;;;;;;;9.07;8.40;;;31.60;46.60;;;;;;4985357;28;20445;-85
2022/07/20 09:32:07;;;;;;;8.80;8.10;;;31.60;45.60;;;;;;4985768;28;20481;-85
2022/07/20 09:37:42;;;;;;;8.83;8.13;;;32.00;45.90;;;;;;4984782;28;20468;-85
2022/07/20 09:40:23;;;;;;;7.80;7.20;;;32.10;45.30;;;;;;4986042;28;20513;-85
2022/07/20 09:46:20;;;;;;;8.27;7.57;;;32.40;44.20;;;;;;4950680;28;20452;-84
2022/07/20 09:52:13;;;;;;;8.77;7.83;;;32.90;44.20;;;;;;4957907;28;20465;-84
2022/07/20 09:54:45;;;;;;;7.53;7.03;;;33.00;44.10;;;;;;4985770;28;20464;-84
2022/07/20 09:57:26;;;;;;;9.17;7.83;;;33.20;43.40;;;;;;4985409;28;20451;-84
2022/07/20 10:00:07;;;;;;;8.70;8.00;;;33.40;45.90;;;;;;4986312;28;20592;-83
2022/07/20 10:02:53;;;;;;;7.37;6.87;;;33.60;40.60;;;;;;4986260;28;20847;-84
2022/07/20 10:05:29;;;;;;;6.97;6.37;;;33.80;40.90;;;;;;4985990;28;20483;-84
2022/07/20 10:08:10;;;;;;;8.50;7.70;;;34.00;41.10;;;;;;4985686;28;20460;-84
2022/07/20 10:10:52;;;;;;;8.07;7.40;;;33.90;38.70;;;;;;4984980;28;20463;-84
2022/07/20 10:13:25;;;;;;;8.50;7.90;;;34.10;40.80;;;;;;4985193;28;20891;-84
2022/07/20 10:16:04;;;;;;;8.37;7.57;;;34.20;38.70;;;;;;4986023;28;20476;-83
2022/07/20 10:18:39;;;;;;;8.07;7.47;;;34.40;40.10;;;;;;4985457;28;20542;-84
2022/07/20 10:24:37;;;;;;;8.30;7.37;;;34.40;38.20;;;;;;4974866;28;20524;-84
2022/07/20 10:27:35;;;;;;;9.10;7.10;;;34.30;37.60;;;;;;4986259;28;20470;-84
2022/07/20 10:30:25;;;;;;;8.70;8.00;;;34.50;37.80;;;;;;4988770;28;20483;-82
2022/07/20 10:33:01;;;;;;;7.53;6.83;;;34.70;38.40;;;;;;4987108;28;20539;-84
2022/07/20 10:35:36;;;;;;;8.17;7.47;;;34.80;38.10;;;;;;4985706;28;20495;-83
2022/07/20 10:38:08;;;;;;;9.47;8.60;;;34.70;37.90;;;;;;4984798;28;20451;-83
2022/07/20 10:43:26;;;;;;;7.77;7.00;;;34.90;37.90;;;;;;4983787;28;21002;-83
2022/07/20 10:45:53;;;;;;;8.83;7.83;;;35.00;36.80;;;;;;4985098;28;20480;-84
2022/07/20 10:48:38;;;;;;;8.77;8.03;;;35.00;36.80;;;;;;4984814;28;20471;-84
2022/07/20 10:51:13;;;;;;;7.10;6.70;;;35.40;38.30;;;;;;4983958;28;20456;-84
2022/07/20 10:53:47;;;;;;;9.07;7.30;;;35.80;38.80;;;;;;4983993;28;20518;-84
2022/07/20 10:59:22;;;;;;;8.70;8.00;;;35.90;36.40;;;;;;4978756;28;20471;-84
2022/07/20 11:01:55;;;;;;;8.37;7.67;;;36.20;35.60;;;;;;4983849;28;20452;-84
2022/07/20 11:04:56;;;;;;;9.10;8.30;;;36.10;36.00;;;;;;4984790;28;20554;-84
2022/07/20 11:07:37;;;;;;;8.93;8.23;;;35.90;36.70;;;;;;4982176;28;20471;-83
2022/07/20 11:10:41;;;;;;;9.03;8.10;;;36.10;36.90;;;;;;4984838;28;20499;-83
2022/07/20 11:14:05;;;;;;;8.13;7.40;;;36.40;37.30;;;;;;4983389;28;20979;-84
2022/07/20 11:16:54;;;;;;;8.70;7.90;;;36.80;35.00;;;;;;4982314;28;20483;-84
2022/07/20 11:20:21;;;;;;;;;;;;;;;;;;;;;
2022/07/20 11:23:32;;;;;;;8.07;7.30;;;37.80;34.20;;;;;;4962068;28;20578;-84
2022/07/20 11:26:07;;;;;;;7.90;7.40;;;37.50;34.00;;;;;;4985646;28;20455;-83
2022/07/20 11:28:59;;;;;;;8.57;7.97;;;37.50;34.30;;;;;;4987380;28;20439;-84
2022/07/20 11:31:29;;;;;;;7.33;6.70;;;37.60;34.00;;;;;;4987606;28;20460;-84
2022/07/20 11:34:03;;;;;;;7.90;7.33;;;38.00;34.30;;;;;;4987132;28;20885;-83
2022/07/20 11:37:09;;;;;;;8.70;8.10;;;38.30;34.30;;;;;;4987280;28;20455;-84
2022/07/20 11:40:25;;;;;;;8.17;7.60;;;38.80;34.10;;;;;;4987723;28;20474;-84
2022/07/20 11:43:15;;;;;;;9.20;8.53;;;39.20;33.50;;;;;;4961518;28;20487;-83
2022/07/20 11:45:46;;;;;;;8.50;7.90;;;39.80;31.80;;;;;;4986271;28;20480;-83
2022/07/20 11:52:18;;;;;;;9.50;8.80;;;40.90;32.20;;;;;;4901566;29;20439;-83
2022/07/20 11:58:35;;;;;;;7.80;7.30;;;41.30;29.80;;;;;;4979145;28;20527;-83
2022/07/20 12:04:28;;;;;;;8.33;7.73;;;40.60;29.70;;;;;;4980433;28;20495;-83
2022/07/20 12:07:00;;;;;;;8.67;8.10;;;40.80;30.50;;;;;;4984982;28;20460;-83
2022/07/20 12:10:00;;;;;;;;;;;;;;;;;;;;;
2022/07/20 12:16:03;;;;;;;9.30;8.67;;;40.70;29.90;;;;;;4979945;28;20464;-84
2022/07/20 12:19:04;;;;;;;9.60;8.90;;;40.50;29.90;;;;;;4982949;28;20523;-83
2022/07/20 12:22:19;;;;;;;9.00;8.50;;;40.70;30.60;;;;;;4979691;28;20486;-83
2022/07/20 12:35:02;;;;;;;9.50;8.73;;;41.30;29.30;;;;;;4967030;28;20468;-83
2022/07/20 12:40:41;;;;;;;8.97;8.37;;;42.20;29.40;;;;;;4975345;28;20467;-84
2022/07/20 12:43:35;;;;;;;9.83;9.03;;;42.80;29.50;;;;;;4978940;28;20487;-84
2022/07/20 13:03:32;;;;;;;10.50;9.83;;;38.40;32.20;;;;;;4994184;28;20460;-83
2022/07/20 13:06:20;;;;;;;12.77;11.87;;;37.10;34.00;;;;;;4908294;29;20527;-84
2022/07/20 13:12:42;;;;;;;15.00;13.70;;;34.60;38.40;;;;;;4933803;28;20456;-84
2022/07/20 13:18:24;;;;;;;15.33;14.03;;;33.40;41.50;;;;;;4893352;28;20467;-83
2022/07/20 13:21:38;;;;;;;17.87;16.27;;;32.90;43.40;;;;;;4983638;28;20470;-83
2022/07/20 13:25:11;;;;;;;18.93;17.20;;;32.40;45.60;;;;;;4983249;28;20581;-83
2022/07/20 13:28:24;;;;;;;19.37;17.60;;;31.80;49.00;;;;;;4979929;28;20828;-83
2022/07/20 13:35:36;;;;;;;19.93;18.37;;;31.10;51.50;;;;;;4831133;29;20474;-84
2022/07/20 13:38:54;;;;;;;21.37;19.07;;;30.60;53.20;;;;;;4849791;29;20477;-84
2022/07/20 13:41:23;;;;;;;28.90;25.83;;;30.40;59.10;;;;;;4849846;29;20450;-84
2022/07/20 13:43:50;;;;;;;26.40;24.00;;;29.30;86.30;;;;;;4842494;29;20505;-85
2022/07/20 13:46:18;;;;;;;27.57;25.23;;;28.30;95.60;;;;;;4958954;28;20451;-86
2022/07/20 13:48:45;;;;;;;26.57;24.17;;;27.40;99.90;;;;;;4976311;28;20483;-86
2022/07/20 13:51:12;;;;;;;26.30;23.97;;;26.90;99.90;;;;;;4976787;28;20466;-86
2022/07/20 14:20:45;;;;;;;27.00;22.50;;;27.20;99.90;;;;;;4720925;30;20463;-83
2022/07/20 14:23:12;;;;;;;24.13;21.50;;;27.60;99.90;;;;;;4841903;29;20498;-83
2022/07/20 14:25:53;;;;;;;22.67;20.67;;;28.20;99.90;;;;;;4917192;29;20484;-85
2022/07/20 14:29:05;;;;;;;23.50;21.37;;;29.00;99.90;;;;;;4956559;28;20449;-84
2022/07/20 14:34:59;;;;;;;22.40;20.50;;;29.70;96.70;;;;;;4957081;28;20471;-85
2022/07/20 14:41:08;;;;;;;22.00;20.40;;;29.80;94.50;;;;;;4964356;28;20445;-84
2022/07/20 14:47:34;;;;;;;22.33;20.53;;;29.80;95.20;;;;;;4963244;28;20456;-84
2022/07/20 14:50:10;;;;;;;22.43;20.60;;;29.60;94.10;;;;;;4963129;28;20507;-85
2022/07/20 14:52:53;;;;;;;22.87;21.00;;;29.50;94.30;;;;;;4962692;28;20800;-85
2022/07/20 14:56:34;;;;;;;22.13;20.33;;;29.50;94.10;;;;;;4966716;28;20488;-84
2022/07/20 14:59:11;;;;;;;22.10;20.30;;;29.60;93.20;;;;;;4956498;28;20543;-84
2022/07/20 15:01:47;;;;;;;23.10;21.30;;;29.70;92.40;;;;;;4978736;28;20431;-84
2022/07/20 15:04:31;;;;;;;23.43;21.70;;;29.80;93.20;;;;;;4978924;28;20507;-84
2022/07/20 15:07:23;;;;;;;;;;;;;;;;;;;;;
2022/07/20 15:09:59;;;;;;;24.07;22.27;;;30.20;92.80;;;;;;4977863;28;20977;-84
2022/07/20 15:12:29;;;;;;;21.47;19.57;;;30.50;91.80;;;;;;4978882;28;20438;-84
2022/07/20 15:18:05;;;;;;;22.40;20.60;;;31.30;89.10;;;;;;4937008;29;20537;-83
2022/07/20 15:20:34;;;;;;;22.30;20.60;;;32.10;87.40;;;;;;4997413;28;20452;-84